createdAt,value
2019-03-12T00:01:53.723Z,63.23
2019-03-12T00:04:25.260Z,63.41
2019-03-12T00:06:57.944Z,63.85
2019-03-12T00:09:29.586Z,64.07
2019-03-12T00:12:01.167Z,64.30
2019-03-12T00:14:32.537Z,64.27
2019-03-12T00:17:04.174Z,64.31
2019-03-12T00:19:35.723Z,64.49
2019-03-12T00:22:07.175Z,64.65
2019-03-12T00:24:39.143Z,64.90
2019-03-12T00:27:10.727Z,64.85
2019-03-12T00:29:42.455Z,65.47
2019-03-12T00:32:14.110Z,65.52
2019-03-12T00:34:45.591Z,65.64
2019-03-12T00:37:17.345Z,65.50
2019-03-12T00:39:48.779Z,65.38
2019-03-12T00:42:20.437Z,65.11
2019-03-12T00:44:51.896Z,65.08
2019-03-12T00:47:23.472Z,65.50
2019-03-12T00:49:54.992Z,65.22
2019-03-12T00:52:27.681Z,64.71
2019-03-12T00:54:59.242Z,64.94
2019-03-12T00:57:30.798Z,64.91
2019-03-12T01:00:02.349Z,64.16
2019-03-12T01:02:35.547Z,63.55
2019-03-12T01:05:07.102Z,63.74
2019-03-12T01:07:38.396Z,63.60
2019-03-12T01:10:14.450Z,63.43
2019-03-12T01:12:45.668Z,63.34
2019-03-12T01:15:17.310Z,62.79
2019-03-12T01:17:48.820Z,62.96
2019-03-12T01:20:20.474Z,62.94
2019-03-12T01:22:52.061Z,62.40
2019-03-12T01:25:23.880Z,62.61
2019-03-12T01:27:55.193Z,62.48
2019-03-12T01:30:26.742Z,62.91
2019-03-12T01:32:58.302Z,62.55
2019-03-12T01:35:29.859Z,62.19
2019-03-12T01:38:01.414Z,62.32
2019-03-12T01:40:32.765Z,62.00
2019-03-12T01:43:04.316Z,62.39
2019-03-12T01:45:35.976Z,62.07
2019-03-12T01:48:07.524Z,62.04
2019-03-12T01:50:38.988Z,62.66
2019-03-12T01:53:10.537Z,62.07
2019-03-12T01:55:42.006Z,62.62
2019-03-12T01:58:14.744Z,62.84
2019-03-12T02:00:47.103Z,62.39
2019-03-12T02:03:18.590Z,62.66
2019-03-12T02:05:50.260Z,63.01
2019-03-12T02:08:21.806Z,63.07
2019-03-12T02:10:53.473Z,62.69
2019-03-12T02:13:25.137Z,63.39
2019-03-12T02:15:56.590Z,63.33
2019-03-12T02:18:28.135Z,63.48
2019-03-12T02:20:59.581Z,63.71
2019-03-12T02:23:31.159Z,63.57
2019-03-12T02:26:02.510Z,63.56
2019-03-12T02:28:34.044Z,63.73
2019-03-12T02:31:05.601Z,63.80
2019-03-12T02:33:37.166Z,64.06
2019-03-12T02:36:08.643Z,64.25
2019-03-12T02:38:40.194Z,64.05
2019-03-12T02:41:11.740Z,64.17
2019-03-12T02:43:43.296Z,64.74
2019-03-12T02:46:14.755Z,64.50
2019-03-12T02:48:46.283Z,64.89
2019-03-12T02:51:17.840Z,65.11
2019-03-12T02:53:49.411Z,65.26
2019-03-12T02:56:20.950Z,64.73
2019-03-12T02:58:52.617Z,64.24
2019-03-12T03:01:24.082Z,64.52
2019-03-12T03:03:55.846Z,64.32
2019-03-12T03:06:31.697Z,64.46
2019-03-12T03:09:04.056Z,64.69
2019-03-12T03:11:36.946Z,64.93
2019-03-12T03:14:11.569Z,65.44
2019-03-12T03:16:43.124Z,65.30
2019-03-12T03:19:14.592Z,64.85
2019-03-12T03:21:46.031Z,65.46
2019-03-12T03:24:17.589Z,65.25
2019-03-12T03:26:49.356Z,65.22
2019-03-12T03:29:20.832Z,65.27
2019-03-12T03:31:52.569Z,65.02
2019-03-12T03:34:27.785Z,64.93
2019-03-12T03:36:56.803Z,65.16
2019-03-12T03:39:28.457Z,65.25
2019-03-12T03:42:00.002Z,65.45
2019-03-12T03:44:31.563Z,65.61
2019-03-12T03:47:03.246Z,65.76
2019-03-12T03:49:34.679Z,66.13
2019-03-12T03:52:07.147Z,66.15
2019-03-12T03:54:38.916Z,66.40
2019-03-12T03:57:10.573Z,66.08
2019-03-12T03:59:42.332Z,65.79
2019-03-12T04:02:13.991Z,65.86
2019-03-12T04:04:45.543Z,65.92
2019-03-12T04:07:17.418Z,65.95
2019-03-12T04:09:48.813Z,66.27
2019-03-12T04:12:20.326Z,66.26
2019-03-12T04:14:51.978Z,66.04
2019-03-12T04:17:23.434Z,65.49
2019-03-12T04:19:54.779Z,65.83
2019-03-12T04:22:26.342Z,65.75
2019-03-12T04:24:57.698Z,65.64
2019-03-12T04:27:29.237Z,66.21
2019-03-12T04:30:00.802Z,66.45
2019-03-12T04:32:32.347Z,66.45
2019-03-12T04:35:04.216Z,66.67
2019-03-12T04:37:35.562Z,66.67
2019-03-12T04:40:13.669Z,66.70
2019-03-12T04:42:45.328Z,67.53
2019-03-12T04:45:17.085Z,67.33
2019-03-12T04:47:48.645Z,67.24
2019-03-12T04:50:19.995Z,66.94
2019-03-12T04:52:51.759Z,66.68
2019-03-12T04:55:23.204Z,66.70
2019-03-12T04:57:54.866Z,66.19
2019-03-12T05:00:26.219Z,66.37
2019-03-12T05:02:57.759Z,66.17
2019-03-12T05:05:29.427Z,66.33
2019-03-12T05:08:00.973Z,65.89
2019-03-12T05:10:32.526Z,65.17
2019-03-12T05:13:04.099Z,64.67
2019-03-12T05:15:35.547Z,64.47
2019-03-12T05:18:07.104Z,64.24
2019-03-12T05:20:38.663Z,63.40
2019-03-12T05:23:10.111Z,63.33
2019-03-12T05:25:41.582Z,62.89
2019-03-12T05:28:13.110Z,62.63
2019-03-12T05:30:44.594Z,61.57
2019-03-12T05:33:16.126Z,61.94
2019-03-12T05:35:47.681Z,61.92
2019-03-12T05:38:19.458Z,61.33
2019-03-12T06:18:49.693Z,61.18
2019-03-12T06:21:22.487Z,61.32
2019-03-12T06:23:54.051Z,61.73
2019-03-12T06:26:25.409Z,61.60
2019-03-12T06:28:56.847Z,62.02
2019-03-12T06:31:29.769Z,60.75
2019-03-12T06:34:02.676Z,60.32
2019-03-12T06:36:35.576Z,60.48
2019-03-12T06:39:09.540Z,60.22
2019-03-12T06:41:42.548Z,59.40
2019-03-12T06:44:21.804Z,59.00
2019-03-12T06:47:00.895Z,59.13
2019-03-12T06:49:33.841Z,57.44
2019-03-12T06:52:09.716Z,56.52
2019-03-12T06:54:45.531Z,56.22
2019-03-12T06:57:18.418Z,56.68
2019-03-12T07:00:06.795Z,56.42
2019-03-12T07:02:55.089Z,56.42
2019-03-12T07:05:30.916Z,57.09
2019-03-12T07:08:06.597Z,56.55
2019-03-12T07:10:51.505Z,55.94
2019-03-12T07:13:30.731Z,56.23
2019-03-12T07:16:06.541Z,55.83
2019-03-12T07:18:45.529Z,55.91
2019-03-12T07:21:33.537Z,55.18
2019-03-12T07:24:09.998Z,54.54
2019-03-12T07:26:44.112Z,54.60
2019-03-12T07:29:35.287Z,54.54
2019-03-12T07:32:24.749Z,54.04
2019-03-12T07:35:14.103Z,54.47
2019-03-12T07:37:56.017Z,55.36
2019-03-12T07:40:37.930Z,54.08
2019-03-12T07:43:25.926Z,54.68
2019-03-12T07:45:58.842Z,53.78
2019-03-12T07:48:34.752Z,52.19
2019-03-12T07:51:10.723Z,51.88
2019-03-12T07:53:59.976Z,50.70
2019-03-12T07:56:32.938Z,50.36
2019-03-12T07:59:17.881Z,51.43
2019-03-12T08:02:09.087Z,48.27
2019-03-12T08:04:58.148Z,47.47
2019-03-12T08:07:43.338Z,47.63
2019-03-12T08:10:16.200Z,47.93
2019-03-12T08:12:51.929Z,47.10
2019-03-12T08:15:25.741Z,46.61
2019-03-12T08:17:58.564Z,47.57
2019-03-12T08:20:40.673Z,47.67
2019-03-12T08:23:31.975Z,47.29
2019-03-12T08:26:07.699Z,46.75
2019-03-12T08:28:43.788Z,47.22
2019-03-12T08:31:16.611Z,47.61
2019-03-12T08:33:50.967Z,47.30
2019-03-12T08:36:30.065Z,47.14
2019-03-12T08:39:03.283Z,47.30
2019-03-12T08:41:49.415Z,46.74
2019-03-12T08:44:40.970Z,45.95
2019-03-12T08:47:14.708Z,45.13
2019-03-12T08:49:53.486Z,44.96
2019-03-12T08:52:35.174Z,44.92
2019-03-12T08:55:11.252Z,45.52
2019-03-12T08:57:44.060Z,44.68
2019-03-12T09:00:25.780Z,45.07
2019-03-12T09:02:58.605Z,44.86
2019-03-12T09:05:34.866Z,43.67
2019-03-12T09:08:23.893Z,44.92
2019-03-12T09:11:08.921Z,43.79
2019-03-12T09:13:48.886Z,43.29
2019-03-12T09:16:21.655Z,44.05
2019-03-12T09:19:06.591Z,44.35
2019-03-12T09:21:48.437Z,44.26
2019-03-12T09:24:30.659Z,43.60
2019-03-12T09:27:15.435Z,43.82
2019-03-12T09:29:51.297Z,44.26
2019-03-12T09:32:42.199Z,43.43
2019-03-12T09:35:24.041Z,44.03
2019-03-12T09:38:00.073Z,44.59
2019-03-12T09:40:32.924Z,43.25
2019-03-12T09:43:11.911Z,43.26
2019-03-12T09:45:50.707Z,45.02
2019-03-12T09:48:32.595Z,44.75
2019-03-12T09:51:11.327Z,43.48
2019-03-12T09:53:46.856Z,43.47
2019-03-12T09:56:36.167Z,42.51
2019-03-12T09:59:08.988Z,41.03
2019-03-12T10:01:41.761Z,40.75
2019-03-12T10:04:17.662Z,40.65
2019-03-12T10:07:07.347Z,42.01
2019-03-12T10:09:42.897Z,42.78
2019-03-12T10:12:15.800Z,44.15
2019-03-12T10:14:57.469Z,43.19
2019-03-12T10:17:36.456Z,45.17
2019-03-12T10:20:22.718Z,44.49
2019-03-12T10:23:01.382Z,44.74
2019-03-12T10:25:40.402Z,41.06
2019-03-12T10:28:16.166Z,43.23
2019-03-12T10:30:58.050Z,42.27
2019-03-12T10:33:30.876Z,41.40
2019-03-12T10:36:09.640Z,42.12
2019-03-12T10:39:18.945Z,41.83
2019-03-12T10:42:09.858Z,41.86
2019-03-12T10:44:45.545Z,41.79
2019-03-12T10:47:24.159Z,42.54
2019-03-12T10:49:55.501Z,44.02
2019-03-12T10:52:26.865Z,41.44
2019-03-12T10:55:11.748Z,41.13
2019-03-12T10:57:31.114Z,41.55
2019-03-12T11:00:04.848Z,41.25
2019-03-12T11:02:40.464Z,40.27
2019-03-12T11:05:10.459Z,39.76
2019-03-12T11:07:41.701Z,39.96
2019-03-12T11:10:15.091Z,40.18
2019-03-12T11:12:46.387Z,40.31
2019-03-12T11:15:17.615Z,40.54
2019-03-12T11:17:50.363Z,40.03
2019-03-12T11:20:26.854Z,39.38
2019-03-12T11:22:59.183Z,40.12
2019-03-12T11:25:30.394Z,39.03
2019-03-12T11:28:01.714Z,39.55
2019-03-12T11:30:32.963Z,37.36
2019-03-12T11:33:04.371Z,37.14
2019-03-12T11:35:39.176Z,36.83
2019-03-12T11:38:08.669Z,38.62
2019-03-12T11:40:39.886Z,38.59
2019-03-12T11:43:11.126Z,39.49
2019-03-12T11:45:42.386Z,39.21
2019-03-12T11:48:13.742Z,39.43
2019-03-12T11:50:45.033Z,39.10
2019-03-12T11:53:16.240Z,39.09
2019-03-12T11:55:47.471Z,39.01
2019-03-12T11:58:19.809Z,39.65
2019-03-12T12:00:59.228Z,39.98
2019-03-12T12:03:30.520Z,40.33
2019-03-12T12:06:01.799Z,39.31
2019-03-12T12:08:33.189Z,39.26
2019-03-12T12:11:12.506Z,39.87
2019-03-12T12:13:43.875Z,40.17
2019-03-12T12:16:15.123Z,41.11
2019-03-12T12:18:46.402Z,39.62
2019-03-12T12:21:17.593Z,39.96
2019-03-12T12:23:48.942Z,40.46
2019-03-12T12:26:20.167Z,40.64
2019-03-12T12:28:51.748Z,39.88
2019-03-12T12:31:23.128Z,39.95
2019-03-12T12:33:54.466Z,40.27
2019-03-12T12:36:25.746Z,39.96
2019-03-12T12:38:56.979Z,39.48
2019-03-12T12:41:28.348Z,39.29
2019-03-12T12:43:59.587Z,39.49
2019-03-12T12:46:30.935Z,39.91
2019-03-12T12:49:02.260Z,39.50
2019-03-12T12:51:33.722Z,39.41
2019-03-12T12:54:06.040Z,38.92
2019-03-12T12:56:37.373Z,39.86
2019-03-12T12:59:08.738Z,39.11
2019-03-12T13:01:40.112Z,38.86
2019-03-12T13:04:11.428Z,38.45
2019-03-12T13:06:42.785Z,38.96
2019-03-12T13:09:14.167Z,39.63
2019-03-12T13:11:45.395Z,38.91
2019-03-12T13:14:16.622Z,39.26
2019-03-12T13:16:47.941Z,39.04
2019-03-12T13:19:19.180Z,38.32
2019-03-12T13:21:50.541Z,37.64
2019-03-12T13:24:22.913Z,37.99
2019-03-12T13:26:54.133Z,38.21
2019-03-12T13:29:26.445Z,38.27
2019-03-12T13:31:57.828Z,39.00
2019-03-12T13:34:29.226Z,38.89
2019-03-12T13:37:00.506Z,39.44
2019-03-12T13:39:31.855Z,39.47
2019-03-12T13:42:03.191Z,39.75
2019-03-12T13:44:35.064Z,39.43
2019-03-12T13:47:06.413Z,40.37
2019-03-12T13:49:37.725Z,40.53
2019-03-12T13:52:09.098Z,39.94
2019-03-12T13:54:40.435Z,39.91
2019-03-12T13:57:11.802Z,40.12
2019-03-12T13:59:43.129Z,40.81
2019-03-12T14:02:14.435Z,39.74
2019-03-12T14:04:46.688Z,39.94
2019-03-12T14:07:17.900Z,40.11
2019-03-12T14:09:49.167Z,40.60
2019-03-12T14:12:20.378Z,40.79
2019-03-12T14:14:51.702Z,41.10
2019-03-12T14:17:23.017Z,41.75
2019-03-12T14:19:55.381Z,41.61
2019-03-12T14:22:26.765Z,41.07
2019-03-12T14:24:58.205Z,41.40
2019-03-12T14:27:29.579Z,42.33
2019-03-12T14:30:00.894Z,42.03
2019-03-12T14:32:33.722Z,41.57
2019-03-12T14:35:06.135Z,41.79
2019-03-12T14:37:37.483Z,42.17
2019-03-12T14:40:08.889Z,42.53
2019-03-12T14:42:40.244Z,43.20
2019-03-12T14:45:15.045Z,43.56
2019-03-12T14:47:46.416Z,43.40
2019-03-12T14:50:18.614Z,43.58
2019-03-12T14:53:21.740Z,43.71
2019-03-12T14:55:46.606Z,44.06
2019-03-12T14:58:17.974Z,44.08
2019-03-12T15:00:49.376Z,44.41
2019-03-12T15:03:20.715Z,44.45
2019-03-12T15:05:52.037Z,44.82
2019-03-12T15:08:23.378Z,44.57
2019-03-12T15:10:54.701Z,45.03
2019-03-12T15:13:26.056Z,45.10
2019-03-12T15:15:57.493Z,44.60
2019-03-12T15:18:28.933Z,45.18
2019-03-12T15:21:00.370Z,45.12
2019-03-12T15:23:31.861Z,45.49
2019-03-12T15:26:03.182Z,46.06
2019-03-12T15:28:34.538Z,45.99
2019-03-12T15:31:05.975Z,46.67
2019-03-12T15:33:37.354Z,46.60
2019-03-12T15:36:08.787Z,47.22
2019-03-12T15:38:40.974Z,47.53
2019-03-12T15:41:12.348Z,47.44
2019-03-12T15:43:43.771Z,48.51
2019-03-12T15:46:15.110Z,49.26
2019-03-12T15:48:46.572Z,49.01
2019-03-12T15:51:17.924Z,49.00
2019-03-12T15:53:49.379Z,49.26
2019-03-12T15:56:22.110Z,49.51
2019-03-12T15:58:53.435Z,50.54
2019-03-12T16:01:24.867Z,51.24
2019-03-12T16:03:56.212Z,51.67
2019-03-12T16:06:27.555Z,52.62
2019-03-12T16:08:59.036Z,52.05
2019-03-12T16:11:31.360Z,52.11
2019-03-12T16:14:03.000Z,52.67
2019-03-12T16:16:34.395Z,52.92
2019-03-12T16:19:05.844Z,52.98
2019-03-12T16:21:37.139Z,53.15
2019-03-12T16:24:08.509Z,53.30
2019-03-12T16:26:39.922Z,53.35
2019-03-12T16:29:11.319Z,53.59
2019-03-12T16:31:42.741Z,54.52
2019-03-12T16:34:14.122Z,54.69
2019-03-12T16:36:45.518Z,55.30
2019-03-12T16:39:16.969Z,55.43
2019-03-12T16:41:48.341Z,55.47
2019-03-12T16:44:19.732Z,55.37
2019-03-12T16:46:51.196Z,55.33
2019-03-12T16:49:22.559Z,55.97
2019-03-12T16:51:53.908Z,55.54
2019-03-12T16:54:25.314Z,56.17
2019-03-12T16:56:56.673Z,56.26
2019-03-12T16:59:28.029Z,55.49
2019-03-12T17:01:59.478Z,55.27
2019-03-12T17:04:30.944Z,55.32
2019-03-12T17:07:02.390Z,55.59
2019-03-12T17:09:33.821Z,55.49
2019-03-12T17:12:05.160Z,55.86
2019-03-12T17:14:39.039Z,56.80
2019-03-12T17:17:10.003Z,57.92
2019-03-12T17:19:41.368Z,58.73
2019-03-12T17:22:12.853Z,59.08
2019-03-12T17:24:44.352Z,59.53
2019-03-12T17:27:15.730Z,59.82
2019-03-12T17:29:47.187Z,60.33
2019-03-12T17:32:18.737Z,60.86
2019-03-12T17:34:50.118Z,60.95
2019-03-12T17:37:21.629Z,60.98
2019-03-12T17:39:53.171Z,61.48
2019-03-12T17:42:24.530Z,61.85
2019-03-12T17:44:56.005Z,62.01
2019-03-12T17:47:27.492Z,62.35
2019-03-12T17:49:58.932Z,63.24
2019-03-12T17:52:30.390Z,63.65
2019-03-12T17:55:01.822Z,63.85
2019-03-12T17:57:33.299Z,64.17
2019-03-12T18:00:08.690Z,64.51
2019-03-12T18:02:42.656Z,64.86
2019-03-12T18:05:13.208Z,64.52
2019-03-12T18:07:45.567Z,64.24
2019-03-12T18:10:18.302Z,64.12
2019-03-12T18:12:49.689Z,64.08
2019-03-12T18:15:21.515Z,63.30
2019-03-12T18:17:52.961Z,63.68
2019-03-12T18:20:24.739Z,63.99
2019-03-12T18:22:56.278Z,64.35
2019-03-12T18:25:33.035Z,64.81
2019-03-12T18:28:04.639Z,65.26
2019-03-12T18:30:36.068Z,65.31
2019-03-12T18:33:07.413Z,65.61
2019-03-12T18:35:38.943Z,65.33
2019-03-12T18:38:10.510Z,64.60
2019-03-12T18:40:42.008Z,64.51
2019-03-12T18:43:15.031Z,65.18
2019-03-12T18:45:47.108Z,65.51
2019-03-12T18:48:18.658Z,65.74
2019-03-12T18:50:50.416Z,65.66
2019-03-12T18:53:22.065Z,67.01
2019-03-12T18:55:56.957Z,67.56
2019-03-12T18:58:28.579Z,68.80
2019-03-12T19:01:02.240Z,69.73
2019-03-12T19:03:33.701Z,69.81
2019-03-12T19:06:05.306Z,69.55
2019-03-12T19:08:37.355Z,69.63
2019-03-12T19:11:09.009Z,69.85
2019-03-12T19:13:40.523Z,70.24
2019-03-12T19:16:12.198Z,70.28
2019-03-12T19:18:43.841Z,70.16
2019-03-12T19:21:15.625Z,70.21
2019-03-12T19:23:47.309Z,70.33
2019-03-12T19:26:19.271Z,70.72
2019-03-12T19:28:51.062Z,70.27
2019-03-12T19:31:24.677Z,70.61
2019-03-12T19:33:57.942Z,70.10
2019-03-12T19:36:31.296Z,70.78
2019-03-12T19:39:03.156Z,71.07
2019-03-12T19:41:36.746Z,70.79
2019-03-12T19:44:08.708Z,71.19
2019-03-12T19:46:40.436Z,70.94
2019-03-12T19:49:12.131Z,70.93
2019-03-12T19:51:43.808Z,71.16
2019-03-12T19:54:15.708Z,71.41
2019-03-12T19:56:47.618Z,71.53
2019-03-12T19:59:19.309Z,71.73
2019-03-12T20:01:51.719Z,72.09
2019-03-12T20:04:23.768Z,72.40
2019-03-12T20:06:55.610Z,72.76
2019-03-12T20:09:33.471Z,73.18
2019-03-12T20:12:20.186Z,73.70
2019-03-12T20:15:07.941Z,73.43
2019-03-12T20:17:49.223Z,73.45
2019-03-12T20:20:43.873Z,73.78
2019-03-12T20:23:18.893Z,73.80
2019-03-12T20:26:13.428Z,73.48
2019-03-12T20:29:06.074Z,73.54
2019-03-12T20:32:01.835Z,73.65
2019-03-12T20:34:54.444Z,73.23
2019-03-12T20:38:04.463Z,74.07
2019-03-12T20:41:05.392Z,74.40
2019-03-12T20:43:47.244Z,74.61
2019-03-12T20:46:33.796Z,74.92
2019-03-12T20:49:11.281Z,75.14
2019-03-12T20:52:03.008Z,75.10
2019-03-12T20:54:57.930Z,75.40
2019-03-12T20:57:57.957Z,75.61
2019-03-12T21:00:58.321Z,75.98
2019-03-12T21:04:05.927Z,76.13
2019-03-12T21:07:02.797Z,76.37
2019-03-12T21:09:59.864Z,76.50
2019-03-12T21:12:55.333Z,76.36
2019-03-12T21:15:38.852Z,76.34
2019-03-12T21:18:19.243Z,76.33
2019-03-12T21:21:09.943Z,76.27
2019-03-12T21:24:20.819Z,76.29
2019-03-12T21:27:00.936Z,76.47
2019-03-12T21:29:44.211Z,76.85
2019-03-12T21:32:16.806Z,77.14
2019-03-12T21:34:48.599Z,76.70
2019-03-12T21:37:20.053Z,76.46
2019-03-12T21:39:55.730Z,76.41
2019-03-12T21:42:25.539Z,76.30
2019-03-12T21:44:57.236Z,76.44
2019-03-12T21:47:28.580Z,76.57
2019-03-12T21:49:59.996Z,76.84
2019-03-12T21:52:31.435Z,76.95
2019-03-12T21:55:02.899Z,77.41
2019-03-12T21:57:34.501Z,77.48
2019-03-12T22:00:09.041Z,77.74
2019-03-12T22:02:41.918Z,78.02
2019-03-12T22:05:13.291Z,78.22
2019-03-12T22:07:44.822Z,78.41
2019-03-12T22:10:16.336Z,78.20
2019-03-12T22:12:47.800Z,77.92
2019-03-12T22:15:19.184Z,77.53
2019-03-12T22:17:50.573Z,77.08
2019-03-12T22:20:22.043Z,76.99
2019-03-12T22:22:57.958Z,76.83
2019-03-12T22:25:29.328Z,76.95
2019-03-12T22:28:00.716Z,77.30
2019-03-12T22:30:32.066Z,76.21
2019-03-12T22:33:03.525Z,76.76
2019-03-12T22:35:35.030Z,76.40
2019-03-12T22:38:06.594Z,76.26
2019-03-12T22:40:37.956Z,76.41
2019-03-12T22:43:09.439Z,76.36
2019-03-12T22:45:41.383Z,76.06
2019-03-12T22:48:12.777Z,75.39
2019-03-12T22:50:44.501Z,74.87
2019-03-12T22:53:15.947Z,72.86
2019-03-12T22:55:47.305Z,71.07
2019-03-12T22:58:18.711Z,69.86
2019-03-12T23:01:08.045Z,69.90
2019-03-12T23:03:57.422Z,69.29
2019-03-12T23:06:46.541Z,69.47
2019-03-12T23:09:35.686Z,69.56
2019-03-12T23:12:08.620Z,68.94
2019-03-12T23:14:41.068Z,68.71
2019-03-12T23:17:14.055Z,68.31
2019-03-12T23:19:47.153Z,68.14
2019-03-12T23:22:18.516Z,67.87
2019-03-12T23:24:49.930Z,67.07
2019-03-12T23:27:21.407Z,65.74
2019-03-12T23:29:52.791Z,62.27
2019-03-12T23:32:24.612Z,62.24
2019-03-12T23:34:56.029Z,61.66
2019-03-12T23:37:27.507Z,60.90
2019-03-12T23:39:58.962Z,60.10
2019-03-12T23:42:30.407Z,60.33
2019-03-12T23:45:01.859Z,59.81
2019-03-12T23:47:33.356Z,59.39
2019-03-12T23:50:07.026Z,60.16
2019-03-12T23:52:38.395Z,60.25
2019-03-12T23:55:11.476Z,60.77
2019-03-12T23:57:42.865Z,61.06
